Time;durP1;ratioP1;P1;durP2;ratioP2;P2;SDS_P1;SDS_P2;PMS_P1;PMS_P2;Temp;Humidity;BMP_temperature;BMP_pressure;BME280_temperature;BME280_humidity;BME280_pressure;Samples;Min_cycle;Max_cycle;Signal;HPM_P1;HPM_P2
2024/01/07 00:00:16;;;;;;;36.60;21.38;;;4.50;99.90;;;;;;4142921;28;20034;-72
2024/01/07 00:02:19;;;;;;;34.17;19.80;;;4.50;99.90;;;;;;4142883;28;20030;-72
2024/01/07 00:04:19;;;;;;;;;;;4.50;99.90;;;;;;4142151;28;20044;-71
2024/01/07 00:06:20;;;;;;;33.50;19.58;;;4.50;99.90;;;;;;4139240;28;20393;-71
2024/01/07 00:08:21;;;;;;;33.15;18.90;;;4.50;99.90;;;;;;4141910;28;20119;-72
2024/01/07 00:10:21;;;;;;;35.60;19.98;;;4.50;99.90;;;;;;4140452;28;21048;-71
2024/01/07 00:12:22;;;;;;;34.35;19.80;;;4.50;99.90;;;;;;4144499;28;20037;-71
2024/01/07 00:14:22;;;;;;;33.35;19.20;;;4.50;99.90;;;;;;4145054;28;20041;-71
2024/01/07 00:16:23;;;;;;;30.40;17.42;;;4.50;99.90;;;;;;4141210;28;20042;-71
2024/01/07 00:18:24;;;;;;;28.50;16.48;;;4.50;99.90;;;;;;4142039;28;20108;-71
2024/01/07 00:20:24;;;;;;;25.00;14.88;;;4.50;99.90;;;;;;4143292;28;20038;-71
2024/01/07 00:22:25;;;;;;;26.73;14.88;;;4.50;99.90;;;;;;4145440;28;20108;-71
2024/01/07 00:24:28;;;;;;;23.23;14.95;;;4.50;99.90;;;;;;4144764;28;20400;-72
2024/01/07 00:26:28;;;;;;;;;;;4.50;99.90;;;;;;4143691;28;20030;-72
2024/01/07 00:28:29;;;;;;;24.40;13.75;;;4.50;99.90;;;;;;4143927;28;20333;-71
2024/01/07 00:30:29;;;;;;;27.90;14.77;;;4.50;99.90;;;;;;4144115;28;20046;-72
2024/01/07 00:32:30;;;;;;;22.50;12.70;;;4.50;99.90;;;;;;4144941;28;20379;-72
2024/01/07 00:34:30;;;;;;;23.05;13.15;;;4.50;99.90;;;;;;4144470;28;20057;-71
2024/01/07 00:36:31;;;;;;;25.23;14.13;;;4.50;99.90;;;;;;4142456;28;20042;-72
2024/01/07 00:38:31;;;;;;;19.75;12.50;;;4.50;99.90;;;;;;4144099;28;20038;-71
2024/01/07 00:40:32;;;;;;;23.50;12.90;;;4.40;99.90;;;;;;4141191;28;20117;-71
2024/01/07 00:42:33;;;;;;;18.92;12.85;;;4.40;99.90;;;;;;4144040;28;20042;-71
2024/01/07 00:44:33;;;;;;;21.63;11.63;;;4.40;99.90;;;;;;4144107;28;20042;-71
2024/01/07 00:46:34;;;;;;;17.38;11.95;;;4.40;99.90;;;;;;4142456;28;20041;-71
2024/01/07 00:48:34;;;;;;;18.75;11.27;;;4.40;99.90;;;;;;4142626;28;20053;-71
2024/01/07 00:50:35;;;;;;;20.73;11.98;;;4.40;99.90;;;;;;4144153;28;20050;-71
2024/01/07 00:52:37;;;;;;;18.40;10.95;;;4.40;99.90;;;;;;4144011;28;20034;-80
2024/01/07 00:54:37;;;;;;;17.33;11.02;;;4.40;99.90;;;;;;4143536;28;20042;-81
2024/01/07 00:56:38;;;;;;;17.05;10.18;;;4.40;99.90;;;;;;4142617;28;20056;-80
2024/01/07 00:58:38;;;;;;;16.75;10.15;;;4.40;99.90;;;;;;4142153;28;20560;-81
2024/01/07 01:00:39;;;;;;;17.63;10.95;;;4.40;99.90;;;;;;4143686;28;20041;-81
2024/01/07 01:02:39;;;;;;;17.15;10.98;;;4.30;99.90;;;;;;4144795;28;20046;-81
2024/01/07 01:04:40;;;;;;;17.50;11.43;;;4.30;99.90;;;;;;4143449;28;20026;-81
2024/01/07 01:06:41;;;;;;;17.05;11.60;;;4.40;99.90;;;;;;4142664;28;20038;-80
2024/01/07 01:08:41;;;;;;;18.88;11.57;;;4.40;99.90;;;;;;4143114;28;20034;-81
2024/01/07 01:10:42;;;;;;;19.30;11.02;;;4.30;99.90;;;;;;4143805;28;20351;-81
2024/01/07 01:12:43;;;;;;;19.30;11.98;;;4.30;99.90;;;;;;4145029;28;20096;-80
2024/01/07 01:14:44;;;;;;;18.85;10.93;;;4.30;99.90;;;;;;4142235;28;20053;-80
2024/01/07 01:16:44;;;;;;;17.25;10.82;;;4.40;99.90;;;;;;4141368;28;20538;-80
2024/01/07 01:18:45;;;;;;;17.83;11.80;;;4.30;99.90;;;;;;4142804;28;20097;-81
2024/01/07 01:20:45;;;;;;;18.20;11.82;;;4.30;99.90;;;;;;4143918;28;20117;-81
2024/01/07 01:22:46;;;;;;;19.40;11.45;;;4.30;99.90;;;;;;4144526;28;20030;-81
2024/01/07 01:24:48;;;;;;;15.15;9.60;;;4.30;99.90;;;;;;4142759;28;20038;-81
2024/01/07 01:26:49;;;;;;;15.93;10.60;;;4.30;99.90;;;;;;4142773;28;20045;-81
2024/01/07 01:28:49;;;;;;;18.08;11.18;;;4.30;99.90;;;;;;4143759;28;20072;-79
2024/01/07 01:30:50;;;;;;;16.88;10.70;;;4.40;99.90;;;;;;4143037;28;20358;-80
2024/01/07 01:32:50;;;;;;;16.67;10.00;;;4.30;99.90;;;;;;4144625;28;20502;-81
2024/01/07 01:34:51;;;;;;;15.75;10.02;;;4.40;99.90;;;;;;4143271;28;20034;-80
2024/01/07 01:36:52;;;;;;;14.27;9.60;;;4.40;99.90;;;;;;4142202;28;20088;-80
2024/01/07 01:38:52;;;;;;;15.25;9.90;;;4.30;99.90;;;;;;4142510;28;20121;-80
2024/01/07 01:40:53;;;;;;;15.48;10.18;;;4.40;99.90;;;;;;4135300;28;20042;-80
2024/01/07 01:42:54;;;;;;;14.75;9.15;;;4.40;99.90;;;;;;4138532;28;20242;-81
2024/01/07 01:44:59;;;;;;;15.55;9.48;;;4.30;99.90;;;;;;4135034;28;20030;-80
2024/01/07 01:47:00;;;;;;;14.52;9.55;;;4.30;99.90;;;;;;4135232;28;20044;-81
2024/01/07 01:49:01;;;;;;;14.45;9.25;;;4.40;99.90;;;;;;4141592;28;20046;-81
2024/01/07 01:51:03;;;;;;;13.27;8.70;;;4.30;99.90;;;;;;4143774;28;20150;-81
2024/01/07 01:53:03;;;;;;;14.60;9.48;;;4.30;99.90;;;;;;4143594;28;20137;-80
2024/01/07 01:55:04;;;;;;;12.63;8.63;;;4.30;99.90;;;;;;4140636;28;20042;-79
2024/01/07 01:57:05;;;;;;;13.27;9.38;;;4.30;99.90;;;;;;4127898;28;20038;-80
2024/01/07 01:59:06;;;;;;;14.57;9.38;;;4.30;99.90;;;;;;4131578;28;20045;-80
2024/01/07 02:01:07;;;;;;;12.95;9.00;;;4.30;99.90;;;;;;4127714;28;20053;-71
2024/01/07 02:03:08;;;;;;;14.40;8.57;;;4.30;99.90;;;;;;4130566;28;20058;-71
2024/01/07 02:05:08;;;;;;;13.40;8.25;;;4.40;99.90;;;;;;4138959;28;20042;-72
2024/01/07 02:07:09;;;;;;;15.02;9.18;;;4.40;99.90;;;;;;4136499;28;20038;-71
2024/01/07 02:09:10;;;;;;;12.82;8.57;;;4.30;99.90;;;;;;4136369;28;20053;-71
2024/01/07 02:11:18;;;;;;;14.00;8.52;;;4.40;99.90;;;;;;4142681;28;20034;-72
2024/01/07 02:13:19;;;;;;;13.40;9.27;;;4.40;99.90;;;;;;4129514;28;20034;-72
2024/01/07 02:15:20;;;;;;;14.10;8.90;;;4.40;99.90;;;;;;4135635;28;20236;-72
2024/01/07 02:17:21;;;;;;;14.40;8.50;;;4.40;99.90;;;;;;4144042;28;20108;-71
2024/01/07 02:19:21;;;;;;;15.27;8.95;;;4.40;99.90;;;;;;4143216;28;20042;-71
2024/01/07 02:21:22;;;;;;;16.50;9.00;;;4.40;99.90;;;;;;4144036;28;20030;-71
2024/01/07 02:23:23;;;;;;;17.73;10.77;;;4.40;99.90;;;;;;4144598;28;20030;-71
2024/01/07 02:25:23;;;;;;;15.57;10.23;;;4.40;99.90;;;;;;4139463;28;20475;-71
2024/01/07 02:27:24;;;;;;;18.20;10.98;;;4.40;99.90;;;;;;4138379;28;20500;-71
2024/01/07 02:29:25;;;;;;;16.45;10.13;;;4.40;99.90;;;;;;4143976;28;20033;-70
2024/01/07 02:31:25;;;;;;;19.40;11.23;;;4.30;99.90;;;;;;4134551;28;20066;-71
2024/01/07 02:33:26;;;;;;;17.92;11.25;;;4.40;99.90;;;;;;4140363;28;20026;-70
2024/01/07 02:35:26;;;;;;;17.20;10.65;;;4.40;99.90;;;;;;4141220;28;20026;-71
2024/01/07 02:37:27;;;;;;;19.25;11.57;;;4.40;99.90;;;;;;4137408;28;20096;-71
2024/01/07 02:39:28;;;;;;;18.60;11.50;;;4.30;99.90;;;;;;4139542;28;20030;-71
2024/01/07 02:41:28;;;;;;;19.20;12.13;;;4.30;99.90;;;;;;4143868;28;20038;-71
2024/01/07 02:43:29;;;;;;;19.33;11.90;;;4.30;99.90;;;;;;4144834;28;20080;-71
2024/01/07 02:45:29;;;;;;;19.33;11.80;;;4.30;99.90;;;;;;4144042;28;20037;-71
2024/01/07 02:47:30;;;;;;;19.23;11.77;;;4.30;99.90;;;;;;4144613;28;20049;-70
2024/01/07 02:49:30;;;;;;;20.00;12.38;;;4.30;99.90;;;;;;4143150;28;20410;-71
2024/01/07 02:51:31;;;;;;;18.55;11.38;;;4.20;99.90;;;;;;4144028;28;20478;-71
2024/01/07 02:53:31;;;;;;;20.75;12.88;;;4.20;99.90;;;;;;4144874;28;20373;-71
2024/01/07 02:55:32;;;;;;;19.35;11.73;;;4.20;99.90;;;;;;4142507;28;20433;-71
2024/01/07 02:57:33;;;;;;;19.63;11.55;;;4.20;99.90;;;;;;4144757;28;20037;-71
2024/01/07 02:59:33;;;;;;;20.25;11.73;;;4.20;99.90;;;;;;4133619;28;20092;-70
2024/01/07 03:01:40;;;;;;;20.48;12.27;;;4.20;99.90;;;;;;4127966;28;20081;-71
2024/01/07 03:03:40;;;;;;;20.27;11.45;;;4.20;99.90;;;;;;4141376;28;20038;-71
2024/01/07 03:05:41;;;;;;;20.88;12.23;;;4.20;99.90;;;;;;4143752;28;20377;-70
2024/01/07 03:07:41;;;;;;;21.05;12.52;;;4.20;99.90;;;;;;4147766;28;20034;-71
2024/01/07 03:09:42;;;;;;;20.75;12.77;;;4.20;99.90;;;;;;4134167;28;20033;-71
2024/01/07 03:11:43;;;;;;;19.77;12.20;;;4.20;99.90;;;;;;4143470;28;20091;-68
2024/01/07 03:13:43;;;;;;;22.25;12.68;;;4.10;99.90;;;;;;4132843;28;20093;-69
2024/01/07 03:15:44;;;;;;;21.02;12.35;;;4.10;99.90;;;;;;4142417;28;20120;-68
2024/01/07 03:17:44;;;;;;;21.15;11.88;;;4.00;99.90;;;;;;4147379;28;20046;-68
2024/01/07 03:19:45;;;;;;;21.58;12.43;;;4.00;99.90;;;;;;4145309;28;20041;-69
2024/01/07 03:21:45;;;;;;;19.73;12.00;;;4.00;99.90;;;;;;4146760;28;20482;-69
2024/01/07 03:23:47;;;;;;;20.92;12.60;;;3.90;99.90;;;;;;4146863;28;20149;-69
2024/01/07 03:25:48;;;;;;;21.05;11.60;;;3.90;99.90;;;;;;4145993;28;20087;-68
2024/01/07 03:27:48;;;;;;;25.40;14.00;;;3.80;99.90;;;;;;4145823;28;20041;-69
2024/01/07 03:29:49;;;;;;;21.60;12.93;;;3.70;99.90;;;;;;4132928;28;20101;-68
2024/01/07 03:31:50;;;;;;;25.02;14.45;;;3.80;99.90;;;;;;4146286;28;20065;-69
2024/01/07 03:33:51;;;;;;;23.80;12.95;;;3.80;99.90;;;;;;4143522;28;20033;-68
2024/01/07 03:35:52;;;;;;;19.60;11.57;;;3.80;99.90;;;;;;4139817;28;20058;-67
2024/01/07 03:37:52;;;;;;;21.00;13.25;;;3.70;99.90;;;;;;4140209;28;20459;-69
2024/01/07 03:39:53;;;;;;;17.17;11.13;;;3.70;99.90;;;;;;4145508;28;20352;-68
2024/01/07 03:41:56;;;;;;;21.35;12.27;;;3.70;99.90;;;;;;4160559;28;20041;-68
2024/01/07 03:43:57;;;;;;;19.45;11.77;;;3.80;99.90;;;;;;4146302;28;20479;-69
2024/01/07 03:45:57;;;;;;;19.92;12.18;;;3.80;99.90;;;;;;4134933;28;20070;-69
2024/01/07 03:47:58;;;;;;;22.48;12.68;;;3.70;99.90;;;;;;4128584;28;20077;-68
2024/01/07 03:49:59;;;;;;;22.30;12.43;;;3.80;99.90;;;;;;4144548;28;20045;-68
2024/01/07 03:51:59;;;;;;;21.52;12.35;;;3.80;99.90;;;;;;4144972;28;20033;-69
2024/01/07 03:54:00;;;;;;;20.23;12.27;;;3.80;99.90;;;;;;4145960;28;20026;-69
2024/01/07 03:56:00;;;;;;;21.27;12.77;;;3.80;99.90;;;;;;4143338;28;20128;-69
2024/01/07 03:58:01;;;;;;;21.80;13.02;;;3.70;99.90;;;;;;4146194;28;20084;-68
2024/01/07 04:00:01;;;;;;;22.92;12.73;;;3.70;99.90;;;;;;4139776;28;20441;-70
2024/01/07 04:02:02;;;;;;;19.45;11.57;;;3.70;99.90;;;;;;4145204;28;20030;-69
2024/01/07 04:04:03;;;;;;;22.50;13.32;;;3.70;99.90;;;;;;4145514;28;20099;-68
2024/01/07 04:06:07;;;;;;;21.30;12.35;;;3.70;99.90;;;;;;4133957;28;20046;-68
2024/01/07 04:08:11;;;;;;;21.00;12.38;;;3.70;99.90;;;;;;4131381;28;20121;-67
2024/01/07 04:10:12;;;;;;;22.25;12.05;;;3.70;99.90;;;;;;4143513;28;20044;-68
2024/01/07 04:12:13;;;;;;;19.55;11.57;;;3.70;99.90;;;;;;4146186;28;20038;-67
2024/01/07 04:14:16;;;;;;;18.67;10.93;;;3.70;99.90;;;;;;4133764;28;20045;-69
2024/01/07 04:16:20;;;;;;;20.65;12.50;;;3.70;99.90;;;;;;4142789;28;20041;-68
2024/01/07 04:18:21;;;;;;;19.75;12.00;;;3.70;99.90;;;;;;4144476;28;20623;-69
2024/01/07 04:20:21;;;;;;;17.98;10.27;;;3.60;99.90;;;;;;4144392;28;20037;-69
2024/01/07 04:22:22;;;;;;;22.20;12.88;;;3.60;99.90;;;;;;4145846;28;20156;-72
2024/01/07 04:24:23;;;;;;;20.35;11.57;;;3.60;99.90;;;;;;4143586;28;20038;-72
2024/01/07 04:26:23;;;;;;;19.38;11.35;;;3.60;99.90;;;;;;4142480;28;20112;-72
2024/01/07 04:28:24;;;;;;;17.90;11.43;;;3.40;99.90;;;;;;4144610;28;20165;-72
2024/01/07 04:30:24;;;;;;;17.08;10.05;;;3.40;99.90;;;;;;4128880;28;20479;-72
2024/01/07 04:32:25;;;;;;;19.05;11.15;;;3.40;99.90;;;;;;4135488;28;20462;-72
2024/01/07 04:34:26;;;;;;;16.42;10.50;;;3.50;99.90;;;;;;4144963;28;20482;-72
2024/01/07 04:36:26;;;;;;;14.90;9.27;;;3.50;99.90;;;;;;4129677;28;20038;-72
2024/01/07 04:38:27;;;;;;;15.10;9.40;;;3.40;99.90;;;;;;4131709;28;20121;-72
2024/01/07 04:40:28;;;;;;;12.45;8.60;;;3.30;99.90;;;;;;4128357;28;20042;-71
2024/01/07 04:42:28;;;;;;;15.23;8.57;;;3.30;99.90;;;;;;4129565;28;20029;-72
2024/01/07 04:44:29;;;;;;;12.07;8.52;;;3.30;99.90;;;;;;4129727;28;20069;-72
2024/01/07 04:46:29;;;;;;;12.65;8.23;;;3.30;99.90;;;;;;4135174;28;20066;-72
2024/01/07 04:48:30;;;;;;;13.38;8.48;;;3.30;99.90;;;;;;4142428;28;20049;-72
2024/01/07 04:50:30;;;;;;;15.07;9.52;;;3.30;99.90;;;;;;4144585;28;20038;-72
2024/01/07 04:52:31;;;;;;;13.80;9.55;;;3.30;99.90;;;;;;4144406;28;20030;-72
2024/01/07 04:54:31;;;;;;;15.05;9.82;;;3.30;99.90;;;;;;4144493;28;20113;-71
2024/01/07 04:56:33;;;;;;;15.55;9.45;;;3.30;99.90;;;;;;4129473;28;20045;-72
2024/01/07 04:58:33;;;;;;;16.13;10.07;;;3.40;99.90;;;;;;4131930;28;20026;-72
2024/01/07 05:00:34;;;;;;;14.68;10.20;;;3.40;99.90;;;;;;4131958;28;20056;-71
2024/01/07 05:02:35;;;;;;;15.32;9.48;;;3.40;99.90;;;;;;4138762;28;20037;-72
2024/01/07 05:04:36;;;;;;;13.63;8.50;;;3.40;99.90;;;;;;4142187;28;20045;-72
2024/01/07 05:06:36;;;;;;;14.68;9.65;;;3.40;99.90;;;;;;4125253;28;20045;-71
2024/01/07 05:08:37;;;;;;;14.52;8.73;;;3.40;99.90;;;;;;4128890;28;20037;-71
2024/01/07 05:10:38;;;;;;;15.38;9.20;;;3.40;99.90;;;;;;4125015;28;20455;-71
2024/01/07 05:12:38;;;;;;;14.90;8.95;;;3.40;99.90;;;;;;4124856;28;20056;-71
2024/01/07 05:14:40;;;;;;;14.90;9.10;;;3.40;99.90;;;;;;4130426;28;20041;-71
2024/01/07 05:16:40;;;;;;;13.60;8.90;;;3.40;99.90;;;;;;4142044;28;20497;-71
2024/01/07 05:18:41;;;;;;;15.35;9.55;;;3.40;99.90;;;;;;4143565;28;20034;-72
2024/01/07 05:20:41;;;;;;;16.33;9.52;;;3.40;99.90;;;;;;4143903;28;20370;-72
2024/01/07 05:22:42;;;;;;;15.45;9.68;;;3.40;99.90;;;;;;4144797;28;20386;-72
2024/01/07 05:24:43;;;;;;;13.25;8.88;;;3.40;99.90;;;;;;4143402;28;20379;-72
2024/01/07 05:26:44;;;;;;;14.65;9.48;;;3.40;99.90;;;;;;4142926;28;20100;-72
2024/01/07 05:28:45;;;;;;;15.35;9.85;;;3.40;99.90;;;;;;4141892;28;21090;-72
2024/01/07 05:30:45;;;;;;;15.23;9.20;;;3.40;99.90;;;;;;4140747;28;20034;-72
2024/01/07 05:32:46;;;;;;;16.88;9.82;;;3.30;99.90;;;;;;4137236;28;20092;-67
2024/01/07 05:34:46;;;;;;;14.43;9.05;;;3.30;99.90;;;;;;4135435;28;20386;-67
2024/01/07 05:36:47;;;;;;;15.77;9.57;;;3.10;99.90;;;;;;4143143;28;20394;-67
2024/01/07 05:38:47;;;;;;;15.07;9.68;;;3.10;99.90;;;;;;4143051;28;20415;-67
2024/01/07 05:40:48;;;;;;;15.18;9.15;;;3.00;99.90;;;;;;4143523;28;20394;-67
2024/01/07 05:42:48;;;;;;;15.50;9.25;;;3.00;99.90;;;;;;4143167;28;20494;-67
2024/01/07 05:44:50;;;;;;;14.52;8.88;;;2.90;99.90;;;;;;4142395;28;20495;-67
2024/01/07 05:46:50;;;;;;;15.43;9.38;;;2.90;99.90;;;;;;4127698;28;20505;-67
2024/01/07 05:48:51;;;;;;;15.30;9.27;;;2.90;99.90;;;;;;4133899;28;20046;-67
2024/01/07 05:50:51;;;;;;;14.77;8.95;;;3.00;99.90;;;;;;4129063;28;20044;-67
2024/01/07 05:52:52;;;;;;;13.80;8.50;;;3.00;99.90;;;;;;4135688;28;20042;-69
2024/01/07 05:54:53;;;;;;;14.85;8.48;;;3.00;99.90;;;;;;4138475;28;20516;-68
2024/01/07 05:56:53;;;;;;;14.02;8.40;;;3.10;99.90;;;;;;4140696;28;20397;-67
2024/01/07 05:58:54;;;;;;;20.10;11.05;;;3.10;99.90;;;;;;4139681;28;20042;-67
2024/01/07 06:00:54;;;;;;;16.27;9.65;;;3.00;99.90;;;;;;4136826;28;20038;-68
2024/01/07 06:02:55;;;;;;;12.90;8.65;;;3.00;99.90;;;;;;4142926;28;20037;-67
2024/01/07 06:04:55;;;;;;;14.10;9.13;;;3.00;99.90;;;;;;4134729;28;20054;-67
2024/01/07 06:06:56;;;;;;;11.73;7.60;;;3.00;99.90;;;;;;4129203;28;20121;-67
2024/01/07 06:08:56;;;;;;;12.65;7.68;;;3.00;99.90;;;;;;4132975;28;20056;-67
2024/01/07 06:10:57;;;;;;;14.05;8.30;;;3.10;99.90;;;;;;4127217;28;20391;-67
2024/01/07 06:12:58;;;;;;;11.43;7.00;;;3.00;99.90;;;;;;4137808;28;20034;-67
2024/01/07 06:14:59;;;;;;;11.23;7.05;;;3.00;99.90;;;;;;4136460;28;20350;-67
2024/01/07 06:16:59;;;;;;;11.30;7.60;;;3.00;99.90;;;;;;4142597;28;20494;-67
2024/01/07 06:19:00;;;;;;;14.10;8.60;;;3.00;99.90;;;;;;4142444;28;20026;-67
2024/01/07 06:21:01;;;;;;;17.27;9.10;;;2.90;99.90;;;;;;4141672;28;20410;-67
2024/01/07 06:23:01;;;;;;;16.40;10.18;;;2.90;99.90;;;;;;4141083;28;20034;-67
2024/01/07 06:25:02;;;;;;;14.77;8.95;;;2.70;99.90;;;;;;4142863;28;20045;-67
2024/01/07 06:27:03;;;;;;;16.05;8.77;;;2.60;99.90;;;;;;4136594;28;20030;-67
2024/01/07 06:29:04;;;;;;;14.40;8.73;;;2.70;99.90;;;;;;4140662;28;20057;-67
2024/01/07 06:31:05;;;;;;;15.48;9.25;;;2.70;99.90;;;;;;4135727;28;20039;-67
2024/01/07 06:33:05;;;;;;;17.90;9.23;;;2.70;99.90;;;;;;4136669;28;20039;-67
2024/01/07 06:35:06;;;;;;;18.55;9.23;;;2.80;99.90;;;;;;4135598;28;20027;-67
2024/01/07 06:37:10;;;;;;;17.00;9.73;;;2.80;99.90;;;;;;4141576;28;20041;-67
2024/01/07 06:39:10;;;;;;;15.98;9.73;;;2.80;99.90;;;;;;4142627;28;20030;-67
2024/01/07 06:41:12;;;;;;;19.92;11.95;;;2.80;99.90;;;;;;4146682;28;20516;-68
2024/01/07 06:43:13;;;;;;;20.48;11.30;;;2.70;99.90;;;;;;4147057;28;20197;-69
2024/01/07 06:45:14;;;;;;;18.48;11.68;;;2.70;99.90;;;;;;4144269;28;20128;-69
2024/01/07 06:47:15;;;;;;;17.92;11.18;;;2.50;99.90;;;;;;4145561;28;20045;-69
2024/01/07 06:49:16;;;;;;;18.75;11.20;;;2.60;99.90;;;;;;4141207;28;20398;-69
2024/01/07 06:51:16;;;;;;;19.80;11.20;;;2.60;99.90;;;;;;4142038;28;20100;-71
2024/01/07 06:53:17;;;;;;;19.63;10.57;;;2.50;99.90;;;;;;4145916;28;20029;-72
2024/01/07 06:55:17;;;;;;;19.15;11.20;;;2.40;99.90;;;;;;4138041;28;20541;-72
2024/01/07 06:57:18;;;;;;;18.27;10.98;;;2.50;99.90;;;;;;4133214;28;20057;-72
2024/01/07 06:59:19;;;;;;;20.05;11.20;;;2.50;99.90;;;;;;4138697;28;20038;-71
2024/01/07 07:01:21;;;;;;;16.15;10.15;;;2.50;99.90;;;;;;4140233;28;20044;-72
2024/01/07 07:03:22;;;;;;;;;;;2.50;99.90;;;;;;4145725;28;20069;-72
2024/01/07 07:05:22;;;;;;;19.40;11.40;;;2.50;99.90;;;;;;4142194;28;20371;-72
2024/01/07 07:07:23;;;;;;;18.10;11.18;;;2.40;99.90;;;;;;4144375;28;20037;-71
2024/01/07 07:09:23;;;;;;;17.02;10.25;;;2.40;99.90;;;;;;4144203;28;20103;-71
2024/01/07 07:11:24;;;;;;;22.65;11.77;;;2.50;99.90;;;;;;4144915;28;20036;-72
2024/01/07 07:13:25;;;;;;;21.73;11.73;;;2.40;99.90;;;;;;4142559;28;20034;-72
2024/01/07 07:15:27;;;;;;;18.85;11.13;;;2.40;99.90;;;;;;4142395;28;20040;-72
2024/01/07 07:17:28;;;;;;;;;;;2.30;99.90;;;;;;4145909;28;20073;-72
2024/01/07 07:19:28;;;;;;;15.60;9.98;;;2.20;99.90;;;;;;4141123;28;19976;-71
2024/01/07 07:21:29;;;;;;;14.68;9.40;;;2.30;99.90;;;;;;4144890;28;20037;-72
2024/01/07 07:23:30;;;;;;;15.90;10.52;;;2.30;99.90;;;;;;4146208;28;20081;-72
2024/01/07 07:25:30;;;;;;;18.08;10.10;;;2.30;99.90;;;;;;4138670;28;20030;-70
2024/01/07 07:27:31;;;;;;;19.65;11.32;;;2.40;99.90;;;;;;4135198;28;20031;-71
2024/01/07 07:29:32;;;;;;;18.05;9.95;;;2.40;99.90;;;;;;4140386;28;20038;-71
2024/01/07 07:31:32;;;;;;;18.95;10.13;;;2.50;99.90;;;;;;4146849;28;20042;-72
2024/01/07 07:33:33;;;;;;;17.27;10.10;;;2.50;99.90;;;;;;4139941;28;20030;-71
2024/01/07 07:35:34;;;;;;;17.42;10.10;;;2.60;99.90;;;;;;4144494;28;20096;-72
2024/01/07 07:37:34;;;;;;;17.42;9.30;;;2.70;99.90;;;;;;4145762;28;20125;-71
2024/01/07 07:39:35;;;;;;;17.83;10.30;;;2.70;99.90;;;;;;4142955;28;20034;-72
2024/01/07 07:41:35;;;;;;;17.00;9.50;;;2.60;99.90;;;;;;4145112;28;20034;-72
2024/01/07 07:43:36;;;;;;;19.38;10.10;;;2.70;99.90;;;;;;4145359;28;20034;-72
2024/01/07 07:45:36;;;;;;;13.52;8.85;;;2.70;99.90;;;;;;4142981;28;20034;-73
2024/01/07 07:47:37;;;;;;;16.40;9.23;;;2.80;99.90;;;;;;4143576;28;20490;-72
2024/01/07 07:49:40;;;;;;;16.80;9.98;;;2.70;99.90;;;;;;4144346;28;20030;-72
2024/01/07 07:51:41;;;;;;;15.65;8.90;;;2.80;99.90;;;;;;4143511;28;20065;-71
2024/01/07 07:53:41;;;;;;;15.90;9.40;;;2.70;99.90;;;;;;4142680;28;20080;-72
2024/01/07 07:55:42;;;;;;;17.88;9.52;;;2.70;99.90;;;;;;4142698;28;20042;-72
2024/01/07 07:57:43;;;;;;;16.30;9.15;;;2.70;99.90;;;;;;4141511;28;20034;-72
2024/01/07 07:59:44;;;;;;;15.40;8.98;;;2.70;99.90;;;;;;4142593;28;20065;-72
2024/01/07 08:01:45;;;;;;;15.95;9.18;;;2.60;99.90;;;;;;4137552;28;20054;-65
2024/01/07 08:03:46;;;;;;;16.20;9.65;;;2.70;99.90;;;;;;4139536;28;20051;-65
2024/01/07 08:05:47;;;;;;;14.43;8.82;;;2.70;99.90;;;;;;4138861;28;20586;-65
2024/01/07 08:07:47;;;;;;;16.25;9.43;;;2.70;99.90;;;;;;4142891;28;20046;-65
2024/01/07 08:09:48;;;;;;;14.45;8.90;;;2.70;99.90;;;;;;4141825;28;20041;-65
2024/01/07 08:11:48;;;;;;;15.52;8.80;;;2.70;99.90;;;;;;4139105;28;20179;-66
2024/01/07 08:13:49;;;;;;;16.08;9.43;;;2.70;99.90;;;;;;4139869;28;20409;-65
2024/01/07 08:15:49;;;;;;;16.27;9.10;;;2.70;99.90;;;;;;4141432;28;20053;-65
2024/01/07 08:17:51;;;;;;;14.38;8.57;;;2.70;99.90;;;;;;4141600;28;20053;-65
2024/01/07 08:19:52;;;;;;;18.67;10.13;;;2.80;99.90;;;;;;4139571;28;20038;-65
2024/01/07 08:21:53;;;;;;;15.68;9.18;;;2.80;99.90;;;;;;4140751;28;20045;-65
2024/01/07 08:23:54;;;;;;;15.05;9.60;;;2.80;99.90;;;;;;4144104;28;20030;-65
2024/01/07 08:25:54;;;;;;;16.52;9.13;;;2.80;99.90;;;;;;4141835;28;20038;-66
2024/01/07 08:27:55;;;;;;;14.07;9.30;;;2.70;99.90;;;;;;4143045;28;20037;-67
2024/01/07 08:29:55;;;;;;;14.80;9.70;;;2.70;99.90;;;;;;4142841;28;20525;-66
2024/01/07 08:31:56;;;;;;;16.45;9.30;;;2.70;99.90;;;;;;4134994;28;20038;-66
2024/01/07 08:33:57;;;;;;;17.35;9.52;;;2.70;99.90;;;;;;4143053;28;20029;-66
2024/01/07 08:35:57;;;;;;;18.20;10.65;;;2.70;99.90;;;;;;4138594;28;20069;-65
2024/01/07 08:37:58;;;;;;;12.95;8.23;;;2.60;99.90;;;;;;4140758;28;20061;-66
2024/01/07 08:39:59;;;;;;;16.17;9.52;;;2.60;99.90;;;;;;4142171;28;20530;-65
2024/01/07 08:41:59;;;;;;;14.00;8.63;;;2.50;99.90;;;;;;4142679;28;20061;-65
2024/01/07 08:44:00;;;;;;;17.48;9.18;;;2.50;99.90;;;;;;4140815;28;20045;-66
2024/01/07 08:46:04;;;;;;;15.77;9.50;;;2.50;99.90;;;;;;4130172;28;20072;-65
2024/01/07 08:48:05;;;;;;;18.55;10.13;;;2.50;99.90;;;;;;4144373;28;20045;-65
2024/01/07 08:50:07;;;;;;;17.67;9.40;;;2.40;99.90;;;;;;4142936;28;20042;-65
2024/01/07 08:52:07;;;;;;;18.30;10.35;;;2.30;99.90;;;;;;4144219;28;21826;-65
2024/01/07 08:54:08;;;;;;;13.68;8.50;;;2.30;99.90;;;;;;4140696;28;20030;-65
2024/01/07 08:56:08;;;;;;;14.43;8.95;;;2.30;99.90;;;;;;4142265;28;20037;-65
2024/01/07 08:58:09;;;;;;;14.77;9.63;;;2.30;99.90;;;;;;4142985;28;20513;-65
2024/01/07 09:00:10;;;;;;;15.25;9.35;;;2.30;99.90;;;;;;4143499;28;20033;-67
2024/01/07 09:02:11;;;;;;;15.73;9.60;;;2.30;99.90;;;;;;4135309;28;20084;-66
2024/01/07 09:04:11;;;;;;;17.52;10.05;;;2.40;99.90;;;;;;4143403;28;20034;-66
2024/01/07 09:06:12;;;;;;;17.63;10.35;;;2.40;99.90;;;;;;4141762;28;20084;-66
2024/01/07 09:08:14;;;;;;;15.77;8.95;;;2.40;99.90;;;;;;4141203;28;20049;-66
2024/01/07 09:10:15;;;;;;;14.50;9.20;;;2.30;99.90;;;;;;4141755;28;20034;-64
2024/01/07 09:12:15;;;;;;;17.30;10.18;;;2.30;99.90;;;;;;4141985;28;20363;-69
2024/01/07 09:14:16;;;;;;;15.80;9.88;;;2.40;99.90;;;;;;4143143;28;20080;-69
2024/01/07 09:16:17;;;;;;;15.77;9.80;;;2.20;99.90;;;;;;4141534;28;20124;-69
2024/01/07 09:18:18;;;;;;;16.27;9.05;;;2.30;99.90;;;;;;4143910;28;20402;-69
2024/01/07 09:20:19;;;;;;;15.52;9.02;;;2.40;99.90;;;;;;4141629;28;20037;-69
2024/01/07 09:22:21;;;;;;;15.65;9.27;;;2.40;99.90;;;;;;4144764;28;20030;-69
2024/01/07 09:24:21;;;;;;;14.60;8.48;;;2.40;99.90;;;;;;4143854;28;20045;-69
2024/01/07 09:26:22;;;;;;;17.20;9.90;;;2.40;99.90;;;;;;4142041;28;20447;-69
2024/01/07 09:28:23;;;;;;;17.67;10.15;;;2.30;99.90;;;;;;4143382;28;20045;-69
2024/01/07 09:30:23;;;;;;;18.13;9.98;;;2.20;99.90;;;;;;4140367;28;20526;-69
2024/01/07 09:32:24;;;;;;;17.98;9.57;;;2.10;99.90;;;;;;4143819;28;20029;-69
2024/01/07 09:34:25;;;;;;;17.67;9.02;;;2.00;99.90;;;;;;4143013;28;20458;-70
2024/01/07 09:36:25;;;;;;;16.25;8.38;;;2.00;99.90;;;;;;4141341;28;20030;-70
2024/01/07 09:38:26;;;;;;;14.55;9.05;;;2.10;99.90;;;;;;4142619;28;20033;-70
2024/01/07 09:40:26;;;;;;;15.63;9.05;;;2.00;99.90;;;;;;4141465;28;20050;-70
2024/01/07 09:42:27;;;;;;;15.55;8.80;;;2.00;99.90;;;;;;4141306;28;20041;-69
2024/01/07 09:44:28;;;;;;;13.32;8.35;;;2.00;99.90;;;;;;4142923;28;20391;-70
2024/01/07 09:46:30;;;;;;;16.00;8.98;;;1.90;99.90;;;;;;4142253;28;20045;-69
2024/01/07 09:48:31;;;;;;;;;;;1.90;99.90;;;;;;4140972;28;22475;-69
2024/01/07 09:50:31;;;;;;;16.70;8.63;;;1.90;99.90;;;;;;4142689;28;20271;-69
2024/01/07 09:52:33;;;;;;;17.50;8.60;;;2.00;99.90;;;;;;4140358;28;20049;-69
2024/01/07 09:54:36;;;;;;;9.75;6.90;;;1.90;99.90;;;;;;4133821;28;20045;-69
2024/01/07 09:56:46;;;;;;;13.90;7.53;;;1.90;99.90;;;;;;4141657;28;20414;-69
2024/01/07 09:58:50;;;;;;;12.65;7.22;;;1.70;99.90;;;;;;4141755;28;20038;-70
2024/01/07 10:00:51;;;;;;;11.68;7.05;;;1.80;99.90;;;;;;4140635;28;20041;-69
2024/01/07 10:02:52;;;;;;;10.85;7.40;;;1.80;99.90;;;;;;4144248;28;20358;-69
2024/01/07 10:04:53;;;;;;;10.02;6.38;;;1.80;99.90;;;;;;4140029;28;20224;-69
2024/01/07 10:06:54;;;;;;;11.57;6.65;;;1.90;99.90;;;;;;4157807;28;20172;-69
2024/01/07 10:08:54;;;;;;;11.45;7.15;;;1.90;99.90;;;;;;4141114;28;20044;-69
2024/01/07 10:10:55;;;;;;;12.52;6.97;;;1.90;99.90;;;;;;4142585;28;20125;-69
2024/01/07 10:12:56;;;;;;;11.23;6.30;;;1.90;99.90;;;;;;4143042;28;20531;-70
2024/01/07 10:14:57;;;;;;;11.20;6.43;;;1.90;99.90;;;;;;4145088;28;20057;-70
2024/01/07 10:16:58;;;;;;;12.18;6.00;;;2.00;99.90;;;;;;4146230;28;20037;-69
2024/01/07 10:18:59;;;;;;;9.52;5.75;;;2.10;99.90;;;;;;4145977;28;20037;-69
2024/01/07 10:21:05;;;;;;;10.73;6.00;;;2.10;99.90;;;;;;4128567;28;20043;-69
2024/01/07 10:23:07;;;;;;;7.97;5.93;;;2.10;99.90;;;;;;4146255;28;20288;-68
2024/01/07 10:25:08;;;;;;;11.23;6.63;;;2.20;99.90;;;;;;4142844;28;20064;-70